createdAt,value
2018-03-08T00:00:08.571Z,0
2018-03-08T00:00:50.991Z,0
2018-03-08T00:01:31.145Z,0
2018-03-08T00:02:12.651Z,0
2018-03-08T00:02:53.239Z,0
2018-03-08T00:03:33.609Z,0
2018-03-08T00:04:14.162Z,0
2018-03-08T00:04:55.065Z,0
2018-03-08T00:05:35.741Z,0
2018-03-08T00:06:16.948Z,0
2018-03-08T00:06:57.482Z,0
2018-03-08T00:07:38.177Z,0
2018-03-08T00:08:18.624Z,0
2018-03-08T00:08:59.945Z,0
2018-03-08T00:09:41.282Z,0
2018-03-08T00:10:22.255Z,0
2018-03-08T00:11:03.497Z,0
2018-03-08T00:11:44.272Z,0
2018-03-08T00:12:24.521Z,0
2018-03-08T00:13:05.017Z,0
2018-03-08T00:13:46.296Z,0
2018-03-08T00:14:28.079Z,0
2018-03-08T00:15:08.471Z,0
2018-03-08T00:15:50.545Z,0
2018-03-08T00:16:30.963Z,0
2018-03-08T00:17:12.504Z,0
2018-03-08T00:17:52.964Z,0
2018-03-08T00:18:33.301Z,0
2018-03-08T00:19:13.798Z,0
2018-03-08T00:19:54.404Z,0
2018-03-08T00:20:34.848Z,0
2018-03-08T00:22:49.561Z,0
2018-03-08T00:23:30.136Z,0
2018-03-08T00:24:10.788Z,0
2018-03-08T00:24:52.137Z,0
2018-03-08T00:25:32.790Z,0
2018-03-08T00:26:13.178Z,0
2018-03-08T00:26:53.852Z,0
2018-03-08T00:27:34.862Z,0
2018-03-08T00:28:16.318Z,0
2018-03-08T00:28:57.142Z,0
2018-03-08T00:29:37.578Z,0
2018-03-08T00:30:19.654Z,0
2018-03-08T00:31:00.119Z,0
2018-03-08T00:31:43.110Z,0
2018-03-08T00:32:23.336Z,0
2018-03-08T00:33:04.480Z,0
2018-03-08T00:33:47.060Z,0
2018-03-08T00:34:28.297Z,0
2018-03-08T00:35:08.937Z,0
2018-03-08T00:35:50.005Z,0
2018-03-08T00:36:31.044Z,0
2018-03-08T00:37:12.159Z,0
2018-03-08T00:37:52.413Z,0
2018-03-08T00:38:33.221Z,0
2018-03-08T00:39:13.429Z,0
2018-03-08T00:39:55.638Z,0
2018-03-08T00:40:36.898Z,0
2018-03-08T00:41:18.215Z,0
2018-03-08T00:41:58.885Z,0
2018-03-08T00:42:40.728Z,0
2018-03-08T00:43:22.442Z,0
2018-03-08T00:44:02.846Z,0
2018-03-08T00:44:43.931Z,0
2018-03-08T00:45:24.739Z,0
2018-03-08T00:46:05.060Z,0
2018-03-08T00:46:45.482Z,0
2018-03-08T00:47:25.941Z,0
2018-03-08T00:48:07.098Z,0
2018-03-08T00:48:48.496Z,0
2018-03-08T00:49:30.723Z,0
2018-03-08T00:50:12.950Z,0
2018-03-08T00:50:53.412Z,0
2018-03-08T00:51:34.950Z,0
2018-03-08T00:52:16.414Z,0
2018-03-08T00:52:56.810Z,0
2018-03-08T00:55:26.737Z,0
2018-03-08T00:56:07.355Z,0
2018-03-08T00:56:48.019Z,0
2018-03-08T00:57:28.830Z,0
2018-03-08T00:58:09.595Z,0
2018-03-08T00:58:51.041Z,0
2018-03-08T00:59:32.906Z,0
2018-03-08T01:00:13.352Z,0
2018-03-08T01:00:54.107Z,0
2018-03-08T01:01:34.509Z,0
2018-03-08T01:02:14.969Z,0
2018-03-08T01:02:56.611Z,0
2018-03-08T01:03:38.015Z,0
2018-03-08T01:04:19.562Z,0
2018-03-08T01:04:59.646Z,0
2018-03-08T01:05:44.328Z,0
2018-03-08T01:06:25.048Z,0
2018-03-08T01:07:06.256Z,0
2018-03-08T01:07:46.596Z,0
2018-03-08T01:08:27.479Z,0
2018-03-08T01:09:08.740Z,0
2018-03-08T01:09:49.100Z,0
2018-03-08T01:10:29.684Z,0
2018-03-08T01:11:09.996Z,0
2018-03-08T01:11:50.530Z,0
2018-03-08T01:12:32.859Z,0
2018-03-08T01:13:15.790Z,0
2018-03-08T01:13:56.936Z,0
2018-03-08T01:14:39.542Z,0
2018-03-08T01:15:20.313Z,0
2018-03-08T01:16:01.107Z,0
2018-03-08T01:16:41.446Z,0
2018-03-08T01:17:21.941Z,0
2018-03-08T01:18:02.312Z,0
2018-03-08T01:18:44.410Z,0
2018-03-08T01:19:26.768Z,0
2018-03-08T01:20:07.513Z,0
2018-03-08T01:20:48.244Z,0
2018-03-08T01:21:28.734Z,0
2018-03-08T01:22:09.627Z,0
2018-03-08T01:22:50.240Z,0
2018-03-08T01:23:30.648Z,0
2018-03-08T01:24:13.732Z,0
2018-03-08T01:24:55.560Z,0
2018-03-08T01:25:36.798Z,0
2018-03-08T01:26:17.264Z,0
2018-03-08T01:26:58.370Z,0
2018-03-08T01:27:39.408Z,0
2018-03-08T01:28:20.692Z,0
2018-03-08T01:29:00.996Z,0
2018-03-08T01:29:41.518Z,0
2018-03-08T01:30:27.652Z,0
2018-03-08T01:31:07.897Z,0
2018-03-08T01:33:45.671Z,0
2018-03-08T01:34:27.459Z,0
2018-03-08T01:35:08.975Z,0
2018-03-08T01:35:53.160Z,0
2018-03-08T01:36:36.540Z,0
2018-03-08T01:37:18.254Z,0
2018-03-08T01:37:58.180Z,0
2018-03-08T01:38:40.568Z,0
2018-03-08T01:39:22.667Z,0
2018-03-08T01:40:04.197Z,0
2018-03-08T01:40:47.038Z,0
2018-03-08T01:41:30.234Z,0
2018-03-08T01:42:11.263Z,0
2018-03-08T01:42:53.632Z,0
2018-03-08T01:43:35.837Z,0
2018-03-08T01:44:16.263Z,0
2018-03-08T01:44:56.854Z,0
2018-03-08T01:45:40.148Z,0
2018-03-08T01:46:24.216Z,0
2018-03-08T01:47:05.525Z,0
2018-03-08T01:47:46.611Z,0
2018-03-08T01:48:26.981Z,0
2018-03-08T01:49:10.921Z,0
2018-03-08T01:49:51.260Z,0
2018-03-08T01:50:33.361Z,0
2018-03-08T01:51:16.540Z,0
2018-03-08T01:51:56.853Z,0
2018-03-08T01:52:38.230Z,0
2018-03-08T01:53:22.380Z,0
2018-03-08T01:54:02.849Z,0
2018-03-08T01:54:44.286Z,0
2018-03-08T01:55:25.870Z,0
2018-03-08T01:56:07.181Z,0
2018-03-08T01:56:48.051Z,0
2018-03-08T01:57:32.115Z,0
2018-03-08T01:58:12.785Z,0
2018-03-08T01:58:53.245Z,0
2018-03-08T01:59:33.722Z,0
2018-03-08T02:00:14.087Z,0
2018-03-08T02:00:54.779Z,0
2018-03-08T02:01:35.557Z,0
2018-03-08T02:02:18.074Z,0
2018-03-08T02:02:57.767Z,0
2018-03-08T02:03:41.160Z,0
2018-03-08T02:04:20.794Z,0
2018-03-08T02:05:02.153Z,0
2018-03-08T02:05:46.480Z,0
2018-03-08T02:06:28.318Z,0
2018-03-08T02:07:10.344Z,0
2018-03-08T02:07:50.575Z,0
2018-03-08T02:08:31.386Z,0
2018-03-08T02:09:13.213Z,0
2018-03-08T02:09:54.749Z,0
2018-03-08T02:10:36.823Z,0
2018-03-08T02:11:16.912Z,0
2018-03-08T02:11:57.308Z,0
2018-03-08T02:12:37.778Z,0
2018-03-08T02:13:18.883Z,0
2018-03-08T02:14:00.951Z,0
2018-03-08T02:14:41.814Z,0
2018-03-08T02:15:21.928Z,0
2018-03-08T02:16:03.078Z,0
2018-03-08T02:19:21.072Z,0
2018-03-08T02:20:01.387Z,0
2018-03-08T02:20:41.822Z,0
2018-03-08T02:21:22.220Z,0
2018-03-08T02:22:02.585Z,0
2018-03-08T02:22:42.950Z,0
2018-03-08T02:23:23.382Z,0
2018-03-08T02:24:03.783Z,0
2018-03-08T02:24:44.148Z,0
2018-03-08T02:25:24.541Z,0
2018-03-08T02:26:04.878Z,0
2018-03-08T02:26:45.359Z,0
2018-03-08T02:27:25.719Z,0
2018-03-08T02:28:06.066Z,0
2018-03-08T02:28:46.528Z,0
2018-03-08T02:29:26.906Z,0
2018-03-08T02:30:07.356Z,0
2018-03-08T02:30:47.698Z,0
2018-03-08T02:31:28.126Z,0
2018-03-08T02:32:08.457Z,0
2018-03-08T02:32:48.974Z,0
2018-03-08T02:33:29.297Z,0
2018-03-08T02:34:09.824Z,0
2018-03-08T02:34:50.153Z,0
2018-03-08T02:35:30.596Z,0
2018-03-08T02:36:10.999Z,0
2018-03-08T02:36:51.421Z,0
2018-03-08T02:37:31.753Z,0
2018-03-08T02:38:12.163Z,0
2018-03-08T02:38:52.551Z,0
2018-03-08T02:39:32.930Z,0
2018-03-08T02:40:13.383Z,0
2018-03-08T02:40:53.749Z,0
2018-03-08T02:41:34.198Z,0
2018-03-08T02:42:14.591Z,0
2018-03-08T02:42:54.967Z,0
2018-03-08T02:43:35.402Z,0
2018-03-08T02:44:15.805Z,0
2018-03-08T02:44:56.112Z,0
2018-03-08T02:45:36.580Z,0
2018-03-08T02:46:17.002Z,0
2018-03-08T02:46:57.386Z,0
2018-03-08T02:47:37.808Z,0
2018-03-08T02:48:18.221Z,0
2018-03-08T02:48:58.548Z,0
2018-03-08T02:49:38.993Z,0
2018-03-08T02:50:19.430Z,0
2018-03-08T02:50:59.767Z,0
2018-03-08T02:51:40.164Z,0
2018-03-08T02:52:20.578Z,0
2018-03-08T02:53:01.007Z,0
2018-03-08T02:53:41.395Z,0
2018-03-08T02:54:21.767Z,0
2018-03-08T02:55:02.203Z,0
2018-03-08T02:55:42.587Z,0
2018-03-08T02:56:23.016Z,0
2018-03-08T02:57:03.359Z,0
2018-03-08T02:57:43.777Z,0
2018-03-08T02:58:24.205Z,0
2018-03-08T02:59:04.642Z,0
2018-03-08T02:59:44.993Z,0
2018-03-08T03:00:25.341Z,0
2018-03-08T03:01:05.710Z,0
2018-03-08T03:01:46.234Z,0
2018-03-08T03:02:26.498Z,0
2018-03-08T03:03:06.935Z,0
2018-03-08T03:03:47.446Z,0
2018-03-08T03:04:27.764Z,0
2018-03-08T03:05:08.138Z,0
2018-03-08T03:05:48.535Z,0
2018-03-08T03:06:28.952Z,0
2018-03-08T03:07:09.362Z,0
2018-03-08T03:07:49.671Z,0
2018-03-08T03:08:30.027Z,0
2018-03-08T03:09:10.436Z,0
2018-03-08T03:09:50.820Z,0
2018-03-08T03:10:31.226Z,0
2018-03-08T03:11:11.595Z,0
2018-03-08T03:11:52.054Z,0
2018-03-08T03:12:32.378Z,0
2018-03-08T03:13:12.771Z,0
2018-03-08T03:13:53.139Z,0
2018-03-08T03:14:33.581Z,0
2018-03-08T03:15:13.909Z,0
2018-03-08T03:15:54.356Z,0
2018-03-08T03:16:34.661Z,0
2018-03-08T03:17:15.159Z,0
2018-03-08T03:17:55.513Z,0
2018-03-08T03:18:35.975Z,0
2018-03-08T03:19:16.326Z,0
2018-03-08T03:19:56.745Z,0
2018-03-08T03:20:37.154Z,0
2018-03-08T03:21:17.603Z,0
2018-03-08T03:21:57.945Z,0
2018-03-08T03:22:38.381Z,0
2018-03-08T03:23:18.736Z,0
2018-03-08T03:23:59.172Z,0
2018-03-08T03:24:39.603Z,0
2018-03-08T03:25:20.007Z,0
2018-03-08T03:26:00.429Z,0
2018-03-08T03:26:40.795Z,0
2018-03-08T03:27:21.214Z,0
2018-03-08T03:28:01.660Z,0
2018-03-08T03:28:41.984Z,0
2018-03-08T03:29:22.393Z,0
2018-03-08T03:30:02.766Z,0
2018-03-08T03:30:43.184Z,0
2018-03-08T03:31:23.604Z,0
2018-03-08T03:32:03.929Z,0
2018-03-08T03:32:44.338Z,0
2018-03-08T03:33:24.739Z,0
2018-03-08T03:34:05.179Z,0
2018-03-08T03:34:45.577Z,0
2018-03-08T03:35:25.915Z,0
2018-03-08T03:36:06.296Z,0
2018-03-08T03:36:46.650Z,0
2018-03-08T03:37:27.064Z,0
2018-03-08T03:38:07.504Z,0
2018-03-08T03:38:47.926Z,0
2018-03-08T03:39:28.301Z,0
2018-03-08T03:40:08.710Z,0
2018-03-08T03:40:49.085Z,0
2018-03-08T03:41:29.496Z,0
2018-03-08T03:42:09.949Z,0
2018-03-08T03:42:50.390Z,0
2018-03-08T03:43:30.820Z,0
2018-03-08T03:44:11.216Z,0
2018-03-08T03:44:51.559Z,0
2018-03-08T03:45:31.964Z,0
2018-03-08T03:46:12.330Z,0
2018-03-08T03:46:52.864Z,0
2018-03-08T03:47:33.272Z,0
2018-03-08T03:48:13.709Z,0
2018-03-08T03:48:54.049Z,0
2018-03-08T03:49:34.469Z,0
2018-03-08T03:50:14.930Z,0
2018-03-08T03:50:55.246Z,0
2018-03-08T03:51:35.674Z,0
2018-03-08T03:52:16.053Z,0
2018-03-08T03:52:56.440Z,0
2018-03-08T03:53:36.872Z,0
2018-03-08T03:54:17.266Z,0
2018-03-08T03:54:57.608Z,0
2018-03-08T03:55:38.067Z,0
2018-03-08T03:56:18.414Z,0
2018-03-08T03:56:58.950Z,0
2018-03-08T03:57:39.334Z,0
2018-03-08T03:58:19.801Z,0
2018-03-08T03:59:00.169Z,0
2018-03-08T03:59:40.542Z,0
2018-03-08T04:00:20.934Z,0
2018-03-08T04:01:01.465Z,0
2018-03-08T04:01:41.844Z,0
2018-03-08T04:02:22.232Z,0
2018-03-08T04:03:02.707Z,0
2018-03-08T04:03:43.098Z,0
2018-03-08T04:04:23.414Z,0
2018-03-08T04:05:03.916Z,0
2018-03-08T04:05:44.329Z,0
2018-03-08T04:06:24.903Z,0
2018-03-08T04:07:05.329Z,0
2018-03-08T04:07:45.750Z,0
2018-03-08T04:08:26.204Z,0
2018-03-08T04:09:06.561Z,0
2018-03-08T04:47:12.403Z,0
2018-03-08T04:47:53.598Z,0
2018-03-08T04:48:34.100Z,0
2018-03-08T04:49:14.831Z,0
2018-03-08T04:51:29.008Z,0
2018-03-08T04:52:09.357Z,0
2018-03-08T04:52:49.817Z,0
2018-03-08T04:53:30.200Z,0
2018-03-08T04:54:10.637Z,0
2018-03-08T04:54:50.970Z,0
2018-03-08T04:55:31.359Z,0
2018-03-08T04:56:11.742Z,0
2018-03-08T04:56:52.160Z,0
2018-03-08T04:57:32.496Z,0
2018-03-08T04:58:12.923Z,0
2018-03-08T04:58:53.309Z,0
2018-03-08T04:59:33.712Z,0
2018-03-08T05:00:14.242Z,0
2018-03-08T05:00:54.539Z,0
2018-03-08T05:01:35.055Z,0
2018-03-08T05:02:15.345Z,0
2018-03-08T05:02:55.816Z,0
2018-03-08T05:03:36.209Z,0
2018-03-08T05:04:16.602Z,0
2018-03-08T05:04:57.015Z,0
2018-03-08T05:05:37.435Z,0
2018-03-08T05:06:17.808Z,0
2018-03-08T05:06:58.151Z,0
2018-03-08T05:07:38.528Z,0
2018-03-08T05:08:18.932Z,0
2018-03-08T05:08:59.757Z,0
2018-03-08T05:09:40.171Z,0
2018-03-08T05:10:20.677Z,0
2018-03-08T05:11:01.077Z,0
2018-03-08T05:11:41.494Z,0
2018-03-08T05:12:21.848Z,0
2018-03-08T05:13:02.314Z,0
2018-03-08T05:13:42.748Z,0
2018-03-08T05:14:23.134Z,0
2018-03-08T05:15:03.542Z,0
2018-03-08T05:15:43.964Z,0
2018-03-08T05:16:24.382Z,0
2018-03-08T05:17:04.788Z,0
2018-03-08T05:17:45.197Z,0
2018-03-08T05:18:25.521Z,0
2018-03-08T05:19:05.900Z,0
2018-03-08T05:19:46.323Z,0
2018-03-08T05:20:26.736Z,0
2018-03-08T05:21:07.185Z,0
2018-03-08T05:21:47.557Z,0
2018-03-08T05:22:28.040Z,0
2018-03-08T05:23:08.385Z,0
2018-03-08T05:23:48.865Z,0
2018-03-08T05:24:29.174Z,0
2018-03-08T05:25:09.561Z,0
2018-03-08T05:25:49.972Z,0
2018-03-08T05:26:30.363Z,0
2018-03-08T05:27:10.765Z,0
2018-03-08T05:27:51.218Z,0
2018-03-08T05:28:31.603Z,0
2018-03-08T05:29:11.958Z,0
2018-03-08T05:29:52.361Z,0
2018-03-08T05:30:32.818Z,0
2018-03-08T05:31:13.235Z,0
2018-03-08T05:31:53.613Z,0
2018-03-08T05:32:33.949Z,0
2018-03-08T05:33:14.386Z,0
2018-03-08T05:33:54.778Z,0
2018-03-08T05:34:35.168Z,0
2018-03-08T05:35:15.567Z,0
2018-03-08T05:35:55.976Z,0
2018-03-08T05:36:36.260Z,0
2018-03-08T05:37:16.756Z,0
2018-03-08T05:37:57.190Z,0
2018-03-08T05:38:37.629Z,0
2018-03-08T05:39:18.025Z,0
2018-03-08T05:39:58.403Z,0
2018-03-08T05:40:38.845Z,0
2018-03-08T05:41:19.192Z,0
2018-03-08T05:41:59.596Z,0
2018-03-08T05:42:40.041Z,0
2018-03-08T05:43:20.353Z,0
2018-03-08T05:44:00.851Z,0
2018-03-08T05:44:41.162Z,0
2018-03-08T05:45:22.177Z,0
2018-03-08T05:46:02.539Z,0
2018-03-08T05:46:43.761Z,0
2018-03-08T05:47:23.303Z,0
2018-03-08T05:48:03.727Z,0
2018-03-08T05:48:44.098Z,0
2018-03-08T05:49:24.540Z,0
2018-03-08T05:50:04.884Z,0
2018-03-08T05:50:45.328Z,0
2018-03-08T05:51:25.753Z,0
2018-03-08T05:52:06.136Z,0
2018-03-08T05:52:46.576Z,0
2018-03-08T05:53:26.985Z,0
2018-03-08T05:54:07.373Z,0
2018-03-08T05:54:47.834Z,0
2018-03-08T05:55:28.183Z,0
2018-03-08T05:56:08.724Z,0
2018-03-08T05:56:49.131Z,0
2018-03-08T05:57:29.476Z,0
2018-03-08T05:58:09.924Z,0
2018-03-08T05:58:50.424Z,0
2018-03-08T05:59:30.829Z,0
2018-03-08T06:00:11.295Z,0
2018-03-08T06:00:51.780Z,0
2018-03-08T06:01:32.079Z,0
2018-03-08T06:02:12.452Z,0
2018-03-08T06:02:52.857Z,0
2018-03-08T06:03:33.238Z,0
2018-03-08T06:04:13.709Z,0
2018-03-08T06:04:54.100Z,0
2018-03-08T06:05:34.571Z,5
2018-03-08T06:06:14.892Z,5
2018-03-08T06:06:55.376Z,5
2018-03-08T06:07:35.723Z,5
2018-03-08T06:08:16.288Z,5
2018-03-08T06:08:58.494Z,5
2018-03-08T06:09:39.004Z,5
2018-03-08T06:10:19.368Z,5
2018-03-08T06:10:59.710Z,5
2018-03-08T06:11:40.366Z,5
2018-03-08T06:12:20.751Z,5
2018-03-08T06:13:01.135Z,5
2018-03-08T06:13:41.603Z,5
2018-03-08T06:14:21.992Z,10
2018-03-08T06:15:02.373Z,10
2018-03-08T06:15:42.817Z,10
2018-03-08T06:16:23.158Z,15
2018-03-08T06:17:03.650Z,15
2018-03-08T06:17:44.003Z,15
2018-03-08T06:18:24.406Z,15
2018-03-08T06:19:04.757Z,20
2018-03-08T06:19:45.173Z,30
2018-03-08T06:20:25.640Z,40
2018-03-08T06:21:05.996Z,55
2018-03-08T06:21:46.447Z,65
2018-03-08T06:22:27.104Z,70
2018-03-08T06:23:07.517Z,75
2018-03-08T06:23:47.965Z,80
2018-03-08T06:24:28.311Z,85
2018-03-08T06:25:08.721Z,90
2018-03-08T06:25:49.133Z,95
2018-03-08T06:26:29.597Z,100
2018-03-08T06:27:10.767Z,105
2018-03-08T06:27:50.361Z,110
2018-03-08T06:28:30.785Z,120
2018-03-08T06:29:11.195Z,125
2018-03-08T06:29:51.634Z,135
2018-03-08T06:30:32.114Z,145
2018-03-08T06:31:12.604Z,145
2018-03-08T06:31:53.022Z,155
2018-03-08T06:32:33.403Z,160
2018-03-08T06:33:13.766Z,165
2018-03-08T06:33:54.226Z,170
2018-03-08T06:34:34.543Z,185
2018-03-08T06:35:14.921Z,185
2018-03-08T06:35:55.360Z,190
2018-03-08T06:36:35.741Z,200
2018-03-08T06:37:16.171Z,205
2018-03-08T06:37:56.960Z,220
2018-03-08T06:38:52.258Z,220
2018-03-08T06:41:09.526Z,255
2018-03-08T06:41:50.037Z,265
2018-03-08T06:42:31.357Z,270
2018-03-08T06:43:11.824Z,280
2018-03-08T06:43:52.212Z,290
2018-03-08T06:44:32.615Z,290
2018-03-08T06:45:13.161Z,295
2018-03-08T06:45:53.481Z,300
2018-03-08T06:46:33.824Z,300
2018-03-08T06:47:14.329Z,305
2018-03-08T06:47:54.976Z,310
2018-03-08T06:48:35.367Z,320
2018-03-08T06:49:15.829Z,330
2018-03-08T06:49:56.188Z,340
2018-03-08T06:50:36.645Z,345
2018-03-08T06:51:17.131Z,350
2018-03-08T06:51:57.853Z,360
2018-03-08T06:52:38.198Z,365
2018-03-08T06:53:18.878Z,200
2018-03-08T06:53:59.175Z,290
2018-03-08T06:54:39.617Z,390
2018-03-08T06:55:19.995Z,370
2018-03-08T06:56:00.586Z,395
2018-03-08T06:56:41.009Z,295
2018-03-08T06:57:21.433Z,155
2018-03-08T06:58:01.950Z,75
2018-03-08T06:58:42.362Z,85
2018-03-08T06:59:22.791Z,155
2018-03-08T07:00:03.166Z,220
2018-03-08T07:00:43.616Z,415
2018-03-08T07:01:24.632Z,440
2018-03-08T07:02:05.076Z,445
2018-03-08T07:02:45.626Z,390
2018-03-08T07:03:25.981Z,270
2018-03-08T07:04:06.512Z,160
2018-03-08T07:04:47.460Z,130
2018-03-08T07:05:27.703Z,125
2018-03-08T07:06:08.310Z,130
2018-03-08T07:06:48.535Z,135
2018-03-08T07:07:29.061Z,130
2018-03-08T07:08:09.443Z,125
2018-03-08T07:08:49.960Z,125
2018-03-08T07:09:30.502Z,130
2018-03-08T07:10:11.081Z,130
2018-03-08T07:10:51.496Z,130
2018-03-08T07:11:31.879Z,110
2018-03-08T07:12:12.202Z,135
2018-03-08T07:12:52.590Z,130
2018-03-08T07:13:33.019Z,130
2018-03-08T07:14:13.617Z,130
2018-03-08T07:14:54.168Z,130
2018-03-08T07:15:34.440Z,125
2018-03-08T07:16:15.786Z,125
2018-03-08T07:16:56.284Z,115
2018-03-08T07:17:36.828Z,115
2018-03-08T07:18:17.640Z,130
2018-03-08T07:18:58.140Z,130
2018-03-08T07:19:38.725Z,130
2018-03-08T07:20:19.059Z,130
2018-03-08T07:20:59.520Z,130
2018-03-08T07:21:40.022Z,85
2018-03-08T07:22:20.485Z,130
2018-03-08T07:23:00.905Z,130
2018-03-08T07:23:41.290Z,130
2018-03-08T07:24:21.726Z,130
2018-03-08T07:25:02.090Z,130
2018-03-08T07:25:42.572Z,130
2018-03-08T07:26:23.436Z,130
2018-03-08T07:27:03.737Z,135
2018-03-08T07:27:44.473Z,140
2018-03-08T07:28:25.130Z,140
2018-03-08T07:29:05.790Z,145
2018-03-08T07:29:50.914Z,150
2018-03-08T07:30:32.406Z,160
2018-03-08T07:31:12.704Z,165
2018-03-08T07:31:54.015Z,175
2018-03-08T07:32:34.385Z,175
2018-03-08T07:33:14.905Z,170
2018-03-08T07:33:55.419Z,165
2018-03-08T07:34:38.527Z,165
2018-03-08T07:35:18.900Z,160
2018-03-08T07:35:59.161Z,160
2018-03-08T07:36:42.754Z,160
2018-03-08T07:37:24.451Z,160
2018-03-08T07:38:04.906Z,160
2018-03-08T07:38:45.542Z,150
2018-03-08T07:39:26.111Z,145
2018-03-08T07:40:06.520Z,135
2018-03-08T07:40:47.217Z,125
2018-03-08T07:41:27.805Z,125
2018-03-08T07:42:07.995Z,125
2018-03-08T07:42:48.699Z,125
2018-03-08T07:43:28.906Z,120
2018-03-08T07:44:09.968Z,115
2018-03-08T07:44:50.399Z,110
2018-03-08T07:45:30.865Z,110
2018-03-08T07:46:12.856Z,110
2018-03-08T07:46:52.556Z,115
2018-03-08T07:47:33.192Z,110
2018-03-08T07:48:13.723Z,105
2018-03-08T07:48:56.449Z,110
2018-03-08T07:49:37.174Z,110
2018-03-08T07:50:24.030Z,115
2018-03-08T07:51:04.417Z,120
2018-03-08T07:51:45.170Z,120
2018-03-08T07:52:26.407Z,120
2018-03-08T07:55:03.651Z,80
2018-03-08T07:55:45.081Z,75
2018-03-08T07:56:27.029Z,75
2018-03-08T07:57:07.040Z,80
2018-03-08T07:57:47.893Z,100
2018-03-08T07:58:28.584Z,105
2018-03-08T07:59:09.024Z,80
2018-03-08T07:59:49.849Z,100
2018-03-08T08:00:31.670Z,110
2018-03-08T08:01:12.292Z,75
2018-03-08T08:01:53.729Z,75
2018-03-08T08:02:42.000Z,65
2018-03-08T08:03:23.528Z,60
2018-03-08T08:04:04.048Z,55
2018-03-08T08:04:44.457Z,50
2018-03-08T08:05:24.950Z,50
2018-03-08T08:06:05.247Z,45
2018-03-08T08:06:50.700Z,40
2018-03-08T08:07:32.067Z,40
2018-03-08T08:08:12.482Z,40
2018-03-08T08:08:53.116Z,35
2018-03-08T08:09:34.575Z,35
2018-03-08T08:10:17.623Z,35
2018-03-08T08:10:57.997Z,35
2018-03-08T08:11:39.998Z,35
2018-03-08T08:12:20.640Z,35
2018-03-08T08:13:01.074Z,35
2018-03-08T08:13:43.450Z,35
2018-03-08T08:14:24.560Z,35
2018-03-08T08:15:04.931Z,35
2018-03-08T08:15:45.372Z,30
2018-03-08T08:16:25.897Z,30
2018-03-08T08:17:06.371Z,30
2018-03-08T08:17:46.911Z,30
2018-03-08T08:18:27.741Z,30
2018-03-08T08:19:08.118Z,30
2018-03-08T08:19:48.828Z,30
2018-03-08T08:20:30.140Z,30
2018-03-08T08:21:10.498Z,30
2018-03-08T08:21:50.999Z,30
2018-03-08T08:22:31.588Z,35
2018-03-08T08:23:12.970Z,35
2018-03-08T08:23:53.387Z,30
2018-03-08T08:24:34.163Z,30
2018-03-08T08:25:19.368Z,30
2018-03-08T08:25:59.750Z,30
2018-03-08T08:26:40.501Z,30
2018-03-08T08:27:21.319Z,30
2018-03-08T08:28:03.352Z,25
2018-03-08T08:28:43.801Z,25
2018-03-08T08:29:24.258Z,25
2018-03-08T08:30:05.947Z,25
2018-03-08T08:30:49.098Z,25
2018-03-08T08:37:32.119Z,25
2018-03-08T08:38:23.841Z,25
2018-03-08T08:39:05.068Z,25
2018-03-08T08:39:45.238Z,25
2018-03-08T08:40:25.671Z,25
2018-03-08T08:41:06.708Z,25
2018-03-08T08:41:47.532Z,25
2018-03-08T08:42:30.867Z,25
2018-03-08T08:43:12.816Z,25
2018-03-08T08:43:53.568Z,25
2018-03-08T08:44:35.905Z,25
2018-03-08T08:45:16.146Z,25
2018-03-08T08:45:58.167Z,30
2018-03-08T08:46:40.447Z,30
2018-03-08T08:47:21.502Z,30
2018-03-08T08:48:01.581Z,30
2018-03-08T08:48:43.515Z,30
2018-03-08T08:49:22.907Z,30
2018-03-08T08:50:03.347Z,30
2018-03-08T08:50:43.817Z,30
2018-03-08T08:51:24.075Z,30
2018-03-08T08:52:06.481Z,30
2018-03-08T08:52:46.982Z,30
2018-03-08T08:53:27.573Z,30
2018-03-08T08:54:09.382Z,30
2018-03-08T08:54:49.284Z,30
2018-03-08T08:55:30.180Z,25
2018-03-08T08:56:15.580Z,25
2018-03-08T08:56:55.859Z,25
2018-03-08T08:57:36.641Z,30
2018-03-08T08:58:16.972Z,30
2018-03-08T08:58:57.340Z,30
2018-03-08T08:59:37.784Z,30
2018-03-08T09:00:18.348Z,30
2018-03-08T09:00:58.961Z,30
2018-03-08T09:01:39.570Z,30
2018-03-08T09:02:23.792Z,30
2018-03-08T09:03:04.147Z,30
2018-03-08T09:03:45.043Z,30
2018-03-08T09:04:25.390Z,30
2018-03-08T09:05:07.930Z,30
2018-03-08T09:05:48.551Z,30
2018-03-08T09:06:29.582Z,35
2018-03-08T09:07:28.663Z,35
2018-03-08T09:08:09.594Z,35
2018-03-08T09:08:50.034Z,40
2018-03-08T09:09:30.665Z,40
2018-03-08T09:10:11.103Z,40
2018-03-08T09:10:53.944Z,40
2018-03-08T09:11:34.415Z,45
2018-03-08T09:12:15.145Z,45
2018-03-08T09:12:55.532Z,45
2018-03-08T09:13:36.848Z,45
2018-03-08T09:14:21.629Z,45
2018-03-08T09:15:08.299Z,45
2018-03-08T09:16:13.000Z,45
2018-03-08T09:16:55.288Z,50
2018-03-08T09:17:35.933Z,50
2018-03-08T09:18:16.604Z,50
2018-03-08T09:18:57.112Z,45
2018-03-08T09:19:40.044Z,45
2018-03-08T09:20:20.495Z,45
2018-03-08T09:21:05.471Z,50
2018-03-08T09:21:46.257Z,50
2018-03-08T09:22:27.885Z,50
2018-03-08T09:23:07.965Z,50
2018-03-08T09:23:48.751Z,50
2018-03-08T09:24:30.881Z,50
2018-03-08T09:25:11.635Z,50
2018-03-08T09:25:52.605Z,50
2018-03-08T09:26:32.705Z,50
2018-03-08T09:27:14.282Z,45
2018-03-08T09:27:56.245Z,45
2018-03-08T09:28:36.839Z,45
2018-03-08T09:29:18.171Z,50
2018-03-08T09:29:58.611Z,45
2018-03-08T09:30:38.931Z,45
2018-03-08T09:31:20.169Z,45
2018-03-08T09:32:00.629Z,50
2018-03-08T09:32:41.328Z,50
2018-03-08T09:33:21.871Z,50
2018-03-08T09:34:02.370Z,50
2018-03-08T09:34:47.133Z,45
2018-03-08T09:35:27.814Z,45
2018-03-08T09:36:08.931Z,45
2018-03-08T09:36:49.490Z,45
2018-03-08T09:37:31.264Z,45
2018-03-08T09:38:12.241Z,45
2018-03-08T09:38:57.288Z,45
2018-03-08T09:39:37.362Z,45
2018-03-08T09:40:17.884Z,45
2018-03-08T09:40:58.507Z,45
2018-03-08T09:41:39.412Z,45
2018-03-08T09:42:19.852Z,45
2018-03-08T09:43:00.367Z,45
2018-03-08T09:43:40.903Z,45
2018-03-08T09:44:25.994Z,45
2018-03-08T09:45:06.424Z,45
2018-03-08T09:45:46.866Z,45
2018-03-08T09:46:27.563Z,45
2018-03-08T09:47:08.694Z,45
2018-03-08T09:47:48.906Z,45
2018-03-08T09:48:31.309Z,45
2018-03-08T09:49:10.229Z,45
2018-03-08T09:49:51.247Z,45
2018-03-08T09:50:31.720Z,45
2018-03-08T09:51:12.129Z,45
2018-03-08T09:51:52.870Z,45
2018-03-08T09:52:33.480Z,45
2018-03-08T09:53:13.777Z,45
2018-03-08T09:53:54.602Z,45
2018-03-08T09:54:34.831Z,45
2018-03-08T09:55:15.335Z,45
2018-03-08T09:55:56.262Z,45
2018-03-08T09:56:36.805Z,45
2018-03-08T09:57:17.329Z,45
2018-03-08T09:58:00.028Z,45
2018-03-08T09:58:40.507Z,45
2018-03-08T09:59:21.488Z,45
2018-03-08T10:00:02.730Z,45
2018-03-08T10:00:41.749Z,45
2018-03-08T10:01:22.475Z,45
2018-03-08T10:02:03.471Z,45
2018-03-08T10:02:45.460Z,45
2018-03-08T10:03:26.093Z,45
2018-03-08T10:04:07.283Z,45
2018-03-08T10:04:48.338Z,45
2018-03-08T10:05:29.367Z,45
2018-03-08T10:06:09.940Z,45
2018-03-08T10:06:50.597Z,45
2018-03-08T10:07:31.149Z,45
2018-03-08T10:08:11.633Z,45
2018-03-08T10:08:52.275Z,45
2018-03-08T10:09:33.015Z,45
2018-03-08T10:47:55.939Z,45
2018-03-08T10:49:03.543Z,50
2018-03-08T10:49:46.387Z,45
2018-03-08T10:55:51.966Z,55
2018-03-08T10:56:32.451Z,55
2018-03-08T10:57:12.787Z,70
2018-03-08T10:57:53.306Z,60
2018-03-08T10:58:33.998Z,60
2018-03-08T10:59:14.813Z,65
2018-03-08T10:59:56.294Z,60
2018-03-08T11:00:39.113Z,60
2018-03-08T11:01:20.315Z,65
2018-03-08T11:02:02.027Z,65
2018-03-08T11:02:43.583Z,65
2018-03-08T11:03:25.128Z,60
2018-03-08T11:04:06.045Z,60
2018-03-08T11:04:47.313Z,60
2018-03-08T11:05:32.162Z,60
2018-03-08T11:06:13.769Z,55
2018-03-08T11:06:54.031Z,55
2018-03-08T11:07:36.807Z,55
2018-03-08T11:08:18.268Z,55
2018-03-08T11:08:59.351Z,55
2018-03-08T11:09:40.911Z,55
2018-03-08T11:10:21.913Z,50
2018-03-08T11:11:05.098Z,55
2018-03-08T11:11:46.557Z,60
2018-03-08T11:12:27.779Z,55
2018-03-08T11:13:09.567Z,55
2018-03-08T11:13:51.061Z,55
2018-03-08T11:14:32.021Z,60
2018-03-08T11:15:14.389Z,60
2018-03-08T11:15:56.578Z,60
2018-03-08T11:16:39.574Z,65
2018-03-08T11:17:21.138Z,60
2018-03-08T11:18:02.202Z,55
2018-03-08T11:18:44.671Z,65
2018-03-08T11:19:27.221Z,65
2018-03-08T11:20:09.431Z,60
2018-03-08T11:20:50.564Z,60
2018-03-08T11:21:35.688Z,60
2018-03-08T11:22:23.564Z,60
2018-03-08T11:29:21.769Z,45
2018-03-08T11:30:02.624Z,45
2018-03-08T11:30:43.515Z,40
2018-03-08T11:31:24.920Z,40
2018-03-08T11:32:05.042Z,45
2018-03-08T11:32:45.502Z,45
2018-03-08T11:33:28.595Z,45
2018-03-08T11:34:08.767Z,50
2018-03-08T11:34:49.972Z,55
2018-03-08T11:35:31.224Z,50
2018-03-08T11:38:54.322Z,50
2018-03-08T11:39:35.560Z,45
2018-03-08T11:40:16.052Z,55
2018-03-08T11:40:57.212Z,50
2018-03-08T11:41:37.626Z,45